Terminal Aerodrome Forecast
Issued by NWS Wakefield, VA

Home | Current Version | Previous Version | Text Only | Print | Product List | Glossary On
Versions: 1 2 3 4 5 6 7 8 9 10 11 12 13 14 15 16 17 18 19 20 21 22 23 24 25 26 27 28
515
FTUS41 KAKQ 221734
TAFORF
TAF
KORF 221734Z 2218/2318 02004KT 2SM -DZ BR OVC003
      TEMPO 2218/2220 1SM BR OVC002
     FM222300 04006KT 2SM BR OVC004
     FM230300 06013KT 2SM RA BR OVC004
     FM231400 17009KT 4SM -RA BR OVC007=

USA.gov is the U.S. government's official web portal to all federal, state and local government web resources and services.